createdAt,value
2023-08-15T00:02:14.653Z,153831.47
2023-08-15T00:04:40.856Z,153818.72
2023-08-15T00:07:07.114Z,153835.28
2023-08-15T00:09:33.352Z,153819.97
2023-08-15T00:11:59.576Z,153832.75
2023-08-15T00:14:25.891Z,153816.16
2023-08-15T00:16:52.168Z,153844.22
2023-08-15T00:19:18.396Z,153832.75
2023-08-15T00:21:44.635Z,153842.91
2023-08-15T00:24:10.900Z,153859.47
2023-08-15T00:26:37.135Z,153870.97
2023-08-15T00:29:03.360Z,153863.34
2023-08-15T00:31:29.607Z,153813.63
2023-08-15T00:33:56.007Z,153803.41
2023-08-15T00:36:22.234Z,153827.66
2023-08-15T00:38:48.462Z,153854.38
2023-08-15T00:41:14.708Z,153850.56
2023-08-15T00:43:40.972Z,153856.94
2023-08-15T00:46:07.262Z,153834.00
2023-08-15T00:48:35.344Z,153844.22
2023-08-15T00:51:01.595Z,153826.38
2023-08-15T00:53:27.827Z,153825.06
2023-08-15T00:55:55.112Z,153834.00
2023-08-15T00:58:21.369Z,153844.22
2023-08-15T01:00:47.663Z,153859.47
2023-08-15T01:03:14.055Z,153867.16
2023-08-15T01:05:40.402Z,153849.31
2023-08-15T01:08:06.706Z,153819.97
2023-08-15T01:10:32.953Z,153831.47
2023-08-15T01:12:59.239Z,153826.38
2023-08-15T01:15:25.546Z,153837.81
2023-08-15T01:17:51.817Z,153845.50
2023-08-15T01:20:18.109Z,153858.19
2023-08-15T01:22:44.333Z,153863.34
2023-08-15T01:25:10.617Z,153856.94
2023-08-15T01:27:36.947Z,153859.47
2023-08-15T01:30:03.240Z,153854.38
2023-08-15T01:32:29.542Z,153840.38
2023-08-15T01:34:55.874Z,153836.56
2023-08-15T01:37:22.289Z,153819.97
2023-08-15T01:39:48.878Z,153809.81
2023-08-15T01:42:16.128Z,153830.19
2023-08-15T01:44:42.370Z,153799.59
2023-08-15T01:47:08.611Z,153842.91
2023-08-15T01:49:34.949Z,153822.53
2023-08-15T01:52:01.328Z,153828.94
2023-08-15T01:54:28.327Z,153819.97
2023-08-15T01:56:54.552Z,153818.72
2023-08-15T01:59:20.849Z,153822.53
2023-08-15T02:01:47.162Z,153819.97
2023-08-15T02:04:13.417Z,153813.63
2023-08-15T02:06:39.659Z,153811.09
2023-08-15T02:09:05.905Z,153812.34
2023-08-15T02:11:32.621Z,153814.91
2023-08-15T02:13:58.886Z,153835.28
2023-08-15T02:16:25.139Z,153814.91
2023-08-15T02:18:51.397Z,153795.78
2023-08-15T02:21:17.691Z,153798.31
2023-08-15T02:23:53.299Z,153798.31
2023-08-15T02:26:19.527Z,153807.22
2023-08-15T02:28:45.820Z,153826.38
2023-08-15T02:31:12.180Z,153844.22
2023-08-15T02:33:45.176Z,153834.00
2023-08-15T02:36:11.460Z,153827.66
2023-08-15T02:38:37.709Z,153832.75
2023-08-15T02:41:04.021Z,153823.78
2023-08-15T02:43:30.255Z,153840.38
2023-08-15T02:45:56.505Z,153837.81
2023-08-15T02:48:22.750Z,153844.22
2023-08-15T02:50:49.000Z,153850.56
2023-08-15T02:53:15.235Z,153865.88
2023-08-15T02:55:41.462Z,153879.84
2023-08-15T02:58:07.754Z,153893.88
2023-08-15T03:00:37.468Z,153897.69
2023-08-15T03:03:03.781Z,153913.03
2023-08-15T03:05:30.044Z,153937.28
2023-08-15T03:07:57.142Z,153928.34
2023-08-15T03:10:23.394Z,153946.19
2023-08-15T03:12:49.643Z,153943.66
2023-08-15T03:15:15.884Z,153943.66
2023-08-15T03:17:42.214Z,153929.63
2023-08-15T03:20:08.458Z,153922.00
2023-08-15T03:22:34.749Z,153938.56
2023-08-15T03:25:01.489Z,153904.16
2023-08-15T03:27:32.017Z,153902.88
2023-08-15T03:29:58.236Z,153910.50
2023-08-15T03:32:24.488Z,153897.69
2023-08-15T03:34:50.716Z,153897.69
2023-08-15T03:37:17.016Z,153868.41
2023-08-15T03:39:43.319Z,153718.09
2023-08-15T03:42:09.537Z,153599.56
2023-08-15T03:44:35.782Z,153519.38
2023-08-15T03:47:02.034Z,153418.75
2023-08-15T03:49:28.319Z,153426.34
2023-08-15T03:51:54.591Z,153384.38
2023-08-15T03:54:21.204Z,153301.69
2023-08-15T03:56:47.429Z,153238.03
2023-08-15T03:59:13.735Z,153236.78
2023-08-15T04:01:40.054Z,153198.56
2023-08-15T04:04:06.303Z,153225.31
2023-08-15T04:06:32.613Z,153211.28
2023-08-15T04:08:58.826Z,153166.75
2023-08-15T04:11:25.075Z,153155.28
2023-08-15T04:13:51.334Z,153170.56
2023-08-15T04:16:17.659Z,153176.94
2023-08-15T04:18:43.939Z,153143.88
2023-08-15T04:21:10.241Z,153174.41
2023-08-15T04:23:36.514Z,153160.41
2023-08-15T04:26:02.768Z,153194.75
2023-08-15T04:28:29.004Z,153202.38
2023-08-15T04:30:55.287Z,153218.97
2023-08-15T04:33:21.904Z,153220.22
2023-08-15T04:35:48.162Z,153211.28
2023-08-15T04:38:14.399Z,153234.22
2023-08-15T04:40:40.706Z,153227.84
2023-08-15T04:43:08.525Z,153192.22
2023-08-15T04:45:35.337Z,153178.22
2023-08-15T04:48:01.659Z,153179.47
2023-08-15T04:50:27.936Z,153146.41
2023-08-15T04:52:54.225Z,153127.31
2023-08-15T04:55:20.511Z,153133.66
2023-08-15T04:57:47.418Z,153162.94
2023-08-15T05:00:14.082Z,153126.06
2023-08-15T05:02:40.419Z,153141.34
2023-08-15T05:05:06.777Z,153140.06
2023-08-15T05:07:33.309Z,153169.28
2023-08-15T05:09:59.615Z,153170.56
2023-08-15T05:12:26.280Z,153216.38
2023-08-15T05:14:52.492Z,153231.69
2023-08-15T05:17:18.932Z,153263.47
2023-08-15T05:19:45.530Z,153288.94
2023-08-15T05:22:11.826Z,153278.75
2023-08-15T05:24:38.213Z,153285.13
2023-08-15T05:27:04.457Z,153287.66
2023-08-15T05:29:30.690Z,153300.38
2023-08-15T05:31:56.976Z,153309.28
2023-08-15T05:34:23.241Z,153316.91
2023-08-15T05:36:49.475Z,153322.03
2023-08-15T05:39:15.911Z,153323.31
2023-08-15T05:41:42.231Z,153295.28
2023-08-15T05:44:08.514Z,153316.91
2023-08-15T05:46:34.772Z,153285.13
2023-08-15T05:49:01.056Z,153296.56
2023-08-15T05:51:27.296Z,153286.41
2023-08-15T05:53:53.575Z,153252.03
2023-08-15T05:56:19.824Z,153287.66
2023-08-15T05:58:46.078Z,153308.03
2023-08-15T06:01:12.391Z,153276.19
2023-08-15T06:03:51.852Z,153304.22
2023-08-15T06:06:18.591Z,153280.00
2023-08-15T06:08:44.894Z,153309.28
2023-08-15T06:11:11.172Z,153327.13
2023-08-15T06:13:37.439Z,153337.31
2023-08-15T06:16:03.696Z,153318.19
2023-08-15T06:18:29.913Z,153315.63
2023-08-15T06:20:56.144Z,153333.47
2023-08-15T06:23:22.511Z,153350.00
2023-08-15T06:25:49.820Z,153375.50
2023-08-15T06:28:16.057Z,153318.19
2023-08-15T06:30:42.366Z,153353.81
2023-08-15T06:33:08.779Z,153393.31
2023-08-15T06:35:35.139Z,153416.19
2023-08-15T06:38:01.378Z,153439.09
2023-08-15T06:40:27.688Z,153449.31
2023-08-15T06:42:53.996Z,153477.34
2023-08-15T06:45:20.236Z,153507.91
2023-08-15T06:47:46.560Z,153528.28
2023-08-15T06:50:12.869Z,153535.88
2023-08-15T06:52:39.169Z,153521.91
2023-08-15T06:55:05.478Z,153558.84
2023-08-15T06:57:31.738Z,153585.56
2023-08-15T06:59:58.013Z,153588.09
2023-08-15T07:02:24.289Z,153577.94
2023-08-15T07:04:50.583Z,153571.53
2023-08-15T07:07:16.890Z,153580.47
2023-08-15T07:09:43.152Z,153613.59
2023-08-15T07:12:09.383Z,153609.78
2023-08-15T07:14:35.590Z,153602.13
2023-08-15T07:17:01.823Z,153637.78
2023-08-15T07:19:28.065Z,153655.59
2023-08-15T07:21:54.275Z,153656.88
2023-08-15T07:24:20.558Z,153686.25
2023-08-15T07:26:46.795Z,153691.31
2023-08-15T07:29:13.055Z,153698.94
2023-08-15T07:31:39.366Z,153701.53
2023-08-15T07:34:05.643Z,153705.34
2023-08-15T07:36:31.880Z,153696.41
2023-08-15T07:38:58.099Z,153696.41
2023-08-15T07:41:24.373Z,153710.41
2023-08-15T07:43:50.648Z,153714.22
2023-08-15T07:46:16.996Z,153719.38
2023-08-15T07:48:43.262Z,153715.50
2023-08-15T07:51:09.548Z,153686.25
2023-08-15T07:53:35.835Z,153682.38
2023-08-15T07:56:02.134Z,153690.06
2023-08-15T07:58:28.388Z,153700.25
2023-08-15T08:00:54.690Z,153738.47
2023-08-15T08:03:20.986Z,153727.00
2023-08-15T08:05:47.688Z,153738.47
2023-08-15T08:08:14.306Z,153739.75
2023-08-15T08:10:40.609Z,153710.41
2023-08-15T08:13:06.876Z,153803.41
2023-08-15T08:15:33.163Z,153867.16
2023-08-15T08:17:59.544Z,153869.69
2023-08-15T08:20:25.851Z,153881.19
2023-08-15T08:22:52.134Z,153918.19
2023-08-15T08:25:18.413Z,153867.16
2023-08-15T08:27:44.678Z,153907.97
2023-08-15T08:30:10.954Z,153974.25
2023-08-15T08:32:37.233Z,153983.16
2023-08-15T08:35:03.496Z,154018.84
2023-08-15T08:37:29.716Z,154034.16
2023-08-15T08:39:56.004Z,154063.50
2023-08-15T08:42:22.456Z,154054.53
2023-08-15T08:44:48.802Z,154007.41
2023-08-15T08:47:15.036Z,154049.47
2023-08-15T08:49:41.325Z,154081.34
2023-08-15T08:52:07.638Z,154096.59
2023-08-15T08:54:47.468Z,154136.22
2023-08-15T08:57:20.432Z,154120.91
2023-08-15T08:59:46.870Z,154050.72
2023-08-15T09:02:13.241Z,154016.31
2023-08-15T09:04:39.544Z,154001.00
2023-08-15T09:07:05.808Z,154050.72
2023-08-15T09:09:32.080Z,154008.69
2023-08-15T09:11:58.705Z,153969.13
2023-08-15T09:14:24.951Z,153955.13
2023-08-15T09:16:51.215Z,153957.69
2023-08-15T09:19:17.492Z,153978.06
2023-08-15T09:21:43.814Z,154016.31
2023-08-15T09:24:10.043Z,154097.88
2023-08-15T09:26:36.334Z,154131.09
2023-08-15T09:29:02.549Z,154113.22
2023-08-15T09:31:28.810Z,154082.63
2023-08-15T09:33:55.066Z,154115.78
2023-08-15T09:36:21.285Z,154129.81
2023-08-15T09:38:47.534Z,154143.84
2023-08-15T09:41:13.761Z,154170.66
2023-08-15T09:43:40.200Z,154198.69
2023-08-15T09:46:06.434Z,154243.34
2023-08-15T09:48:32.653Z,154203.78
2023-08-15T09:50:59.018Z,154222.91
2023-08-15T09:53:25.296Z,154262.47
2023-08-15T09:55:51.571Z,154240.75
2023-08-15T09:58:17.816Z,154207.63
2023-08-15T10:00:44.068Z,154193.59
2023-08-15T10:03:10.478Z,154175.75
2023-08-15T10:05:36.845Z,154151.47
2023-08-15T10:08:03.154Z,154155.34
2023-08-15T10:10:29.476Z,154221.63
2023-08-15T10:12:55.751Z,154302.00
2023-08-15T10:15:22.026Z,154325.00
2023-08-15T10:17:48.344Z,154364.56
2023-08-15T10:20:14.619Z,154388.81
2023-08-15T10:22:40.935Z,154413.06
2023-08-15T10:25:07.425Z,154416.88
2023-08-15T10:27:33.743Z,154421.97
2023-08-15T10:29:59.965Z,154415.59
2023-08-15T10:32:26.233Z,154367.09
2023-08-15T10:34:52.533Z,154303.28
2023-08-15T10:37:18.809Z,154230.59
2023-08-15T10:39:45.090Z,154198.69
2023-08-15T10:42:11.353Z,154217.81
2023-08-15T10:44:37.611Z,154134.94
2023-08-15T10:47:03.941Z,154078.75
2023-08-15T10:49:30.182Z,154088.97
2023-08-15T10:51:56.387Z,154131.09
2023-08-15T10:54:22.673Z,154175.75
2023-08-15T10:56:48.970Z,154155.34
2023-08-15T10:59:15.398Z,154117.09
2023-08-15T11:01:41.711Z,154040.50
2023-08-15T11:04:08.405Z,154071.13
2023-08-15T11:06:34.665Z,154091.50
2023-08-15T11:09:00.935Z,154053.28
2023-08-15T11:11:27.212Z,154026.53
2023-08-15T11:13:53.504Z,153974.25
2023-08-15T11:16:20.242Z,154012.50
2023-08-15T11:18:46.537Z,154048.19
2023-08-15T11:21:12.788Z,154003.53
2023-08-15T11:23:39.058Z,154029.06
2023-08-15T11:26:05.316Z,154057.09
2023-08-15T11:28:31.534Z,154041.78
2023-08-15T11:31:00.792Z,154058.34
2023-08-15T11:33:31.918Z,153994.66
2023-08-15T11:35:58.165Z,154025.19
2023-08-15T11:38:24.416Z,154027.78
2023-08-15T11:40:50.716Z,154022.66
2023-08-15T11:43:16.982Z,154025.19
2023-08-15T11:45:43.332Z,154066.03
2023-08-15T11:48:10.017Z,154131.09
2023-08-15T11:50:44.347Z,154131.09
2023-08-15T11:53:11.092Z,154147.66
2023-08-15T11:55:37.377Z,154097.88
2023-08-15T11:58:03.593Z,154127.28
2023-08-15T12:00:29.869Z,154180.81
2023-08-15T12:02:56.105Z,154207.63
2023-08-15T12:05:22.385Z,154206.31
2023-08-15T12:07:48.673Z,154194.88
2023-08-15T12:10:14.920Z,154137.50
2023-08-15T12:12:41.186Z,154110.63
2023-08-15T12:15:07.458Z,154123.44
2023-08-15T12:17:33.856Z,154082.63
2023-08-15T12:20:00.234Z,154100.47
2023-08-15T12:22:27.469Z,154110.63
2023-08-15T12:24:57.069Z,154132.34
2023-08-15T12:27:23.314Z,154092.78
2023-08-15T12:30:12.799Z,154100.47
2023-08-15T12:32:35.898Z,154157.88
2023-08-15T12:35:02.212Z,154127.28
2023-08-15T12:37:28.430Z,154105.56
2023-08-15T12:39:54.683Z,154152.81
2023-08-15T12:42:20.982Z,154161.69
2023-08-15T12:44:47.225Z,154164.25
2023-08-15T12:47:13.861Z,154238.22
2023-08-15T12:49:40.092Z,154265.03
2023-08-15T12:52:06.359Z,154298.19
2023-08-15T12:54:32.642Z,154377.31
2023-08-15T12:56:58.877Z,154397.72
2023-08-15T12:59:27.623Z,154501.13
2023-08-15T13:01:54.138Z,154589.25
2023-08-15T13:04:20.483Z,154713.09
2023-08-15T13:06:46.774Z,154747.56
2023-08-15T13:09:13.008Z,154664.56
2023-08-15T13:11:39.244Z,154627.53
2023-08-15T13:14:05.893Z,154576.47
2023-08-15T13:16:32.251Z,154529.22
2023-08-15T13:18:58.473Z,154527.94
2023-08-15T13:21:24.689Z,154564.94
2023-08-15T13:23:50.961Z,154567.50
2023-08-15T13:26:17.241Z,154614.75
2023-08-15T13:28:43.724Z,154696.50
2023-08-15T13:31:15.125Z,154678.56
2023-08-15T13:33:41.481Z,154676.00
2023-08-15T13:36:07.738Z,154737.38
2023-08-15T13:38:34.014Z,154780.78
2023-08-15T13:41:00.368Z,154669.66
2023-08-15T13:43:27.227Z,154700.34
2023-08-15T13:45:53.452Z,154679.88
2023-08-15T13:48:19.709Z,154631.34
2023-08-15T13:50:45.918Z,154654.31
2023-08-15T13:53:12.211Z,154571.38
2023-08-15T13:55:38.481Z,154617.28
2023-08-15T13:58:04.711Z,154599.44
2023-08-15T14:00:30.982Z,154607.13
2023-08-15T14:02:57.904Z,154512.63
2023-08-15T14:05:24.164Z,154488.34
2023-08-15T14:07:50.435Z,154461.56
2023-08-15T14:10:16.645Z,154441.09
2023-08-15T14:12:42.936Z,154432.19
2023-08-15T14:15:10.217Z,154452.59
2023-08-15T14:17:36.588Z,154427.09
2023-08-15T14:20:03.084Z,154430.91
2023-08-15T14:22:29.377Z,154427.09
2023-08-15T14:24:55.614Z,154470.47
2023-08-15T14:27:21.888Z,154515.16
2023-08-15T14:29:48.137Z,154470.47
2023-08-15T14:32:14.451Z,154453.88
2023-08-15T14:34:40.717Z,154419.41
2023-08-15T14:37:07.038Z,154415.59
2023-08-15T14:39:33.278Z,154372.22
2023-08-15T14:41:59.922Z,154379.88
2023-08-15T14:44:27.210Z,154404.09
2023-08-15T14:46:53.481Z,154390.09
2023-08-15T14:49:19.768Z,154365.81
2023-08-15T14:51:45.997Z,154323.75
2023-08-15T14:54:12.338Z,154284.16
2023-08-15T14:56:38.621Z,154256.06
2023-08-15T14:59:04.910Z,154265.03
2023-08-15T15:01:31.314Z,154236.94
2023-08-15T15:03:57.636Z,154229.31
2023-08-15T15:06:23.978Z,154220.34
2023-08-15T15:08:50.207Z,154210.19
2023-08-15T15:11:16.548Z,154244.63
2023-08-15T15:13:42.995Z,154239.47
2023-08-15T15:16:09.236Z,154271.38
2023-08-15T15:18:35.473Z,154291.78
2023-08-15T15:21:02.379Z,154317.38
2023-08-15T15:23:28.737Z,154362.00
2023-08-15T15:25:55.005Z,154345.41
2023-08-15T15:28:21.260Z,154326.28
2023-08-15T15:30:47.880Z,154327.56
2023-08-15T15:33:14.158Z,154353.09
2023-08-15T15:35:40.434Z,154451.31
2023-08-15T15:38:06.705Z,154553.50
2023-08-15T15:40:32.919Z,154591.78
2023-08-15T15:42:59.176Z,154711.81
2023-08-15T15:45:25.445Z,154798.66
2023-08-15T15:47:51.803Z,154859.94
2023-08-15T15:50:18.158Z,154825.50
2023-08-15T15:52:44.429Z,154782.06
2023-08-15T15:55:10.802Z,154736.09
2023-08-15T15:57:37.082Z,154732.25
2023-08-15T16:00:03.306Z,154688.81
2023-08-15T16:02:29.554Z,154681.16
2023-08-15T16:04:55.796Z,154654.31
2023-08-15T16:07:22.043Z,154654.31
2023-08-15T16:09:48.360Z,154719.50
2023-08-15T16:12:14.589Z,154742.47
2023-08-15T16:14:46.242Z,154684.97
2023-08-15T16:17:12.511Z,154678.56
2023-08-15T16:19:38.747Z,154646.69
2023-08-15T16:22:06.318Z,154679.88
2023-08-15T16:24:32.602Z,154598.16
2023-08-15T16:26:58.878Z,154647.94
2023-08-15T16:29:25.120Z,154580.28
2023-08-15T16:31:51.353Z,154538.16
2023-08-15T16:34:17.650Z,154517.75
2023-08-15T16:36:43.910Z,154456.41
2023-08-15T16:39:10.211Z,154455.16
2023-08-15T16:41:36.538Z,154451.31
2023-08-15T16:44:02.791Z,154358.19
2023-08-15T16:46:29.090Z,154314.78
2023-08-15T16:48:55.330Z,154345.41
2023-08-15T16:51:21.570Z,154336.50
2023-08-15T16:53:47.819Z,154332.66
2023-08-15T16:56:14.117Z,154330.09
2023-08-15T16:58:40.348Z,154323.75
2023-08-15T17:01:06.705Z,154305.84
2023-08-15T17:03:33.028Z,154308.38
2023-08-15T17:05:59.373Z,154326.28
2023-08-15T17:08:25.614Z,154291.78
2023-08-15T17:10:51.866Z,154298.19
2023-08-15T17:13:18.153Z,154273.94
2023-08-15T17:15:46.330Z,154272.66
2023-08-15T17:18:12.567Z,154281.59
2023-08-15T17:20:38.805Z,154277.75
2023-08-15T17:23:05.138Z,154267.56
2023-08-15T17:25:31.352Z,154336.50
2023-08-15T17:27:57.599Z,154347.97
2023-08-15T17:30:23.892Z,154330.09
2023-08-15T17:32:50.192Z,154303.28
2023-08-15T17:35:16.489Z,154287.97
2023-08-15T17:37:42.827Z,154268.84
2023-08-15T17:40:09.094Z,154257.34
2023-08-15T17:42:35.322Z,154294.31
2023-08-15T17:45:01.628Z,154336.50
2023-08-15T17:47:27.943Z,154378.59
2023-08-15T17:49:54.248Z,154427.09
2023-08-15T17:52:20.763Z,154391.38
2023-08-15T17:54:47.147Z,154337.78
2023-08-15T17:57:22.217Z,154358.19
2023-08-15T17:59:48.514Z,154310.91
2023-08-15T18:02:14.863Z,154328.81
2023-08-15T18:04:41.228Z,154293.06
2023-08-15T18:07:07.473Z,154319.91
2023-08-15T18:09:33.774Z,154230.59
2023-08-15T18:12:00.463Z,154174.47
2023-08-15T18:14:26.750Z,154162.97
2023-08-15T18:16:53.034Z,154165.53
2023-08-15T18:19:20.325Z,154157.88
2023-08-15T18:21:46.614Z,154140.03
2023-08-15T18:24:12.878Z,154134.94
2023-08-15T18:26:39.086Z,154082.63
2023-08-15T18:29:05.353Z,154082.63
2023-08-15T18:31:31.667Z,154048.19
2023-08-15T18:33:57.904Z,154040.50
2023-08-15T18:36:24.140Z,154003.53
2023-08-15T18:38:50.343Z,153936.03
2023-08-15T18:41:16.658Z,153941.09
2023-08-15T18:43:42.919Z,153878.59
2023-08-15T18:46:09.232Z,153837.81
2023-08-15T18:48:36.229Z,153865.88
2023-08-15T18:51:02.525Z,153885.00
2023-08-15T18:53:28.883Z,153876.03
2023-08-15T18:55:55.119Z,153854.38
2023-08-15T18:58:21.391Z,153837.81
2023-08-15T19:00:47.649Z,153826.38
2023-08-15T19:03:14.104Z,153821.25
2023-08-15T19:05:40.427Z,153803.41
2023-08-15T19:08:11.152Z,153775.41
2023-08-15T19:10:37.450Z,153779.22
2023-08-15T19:13:03.724Z,153798.31
2023-08-15T19:15:29.996Z,153784.31
2023-08-15T19:17:56.368Z,153748.63
2023-08-15T19:20:22.703Z,153755.03
2023-08-15T19:22:49.001Z,153715.50
2023-08-15T19:25:15.243Z,153716.78
2023-08-15T19:27:41.489Z,153696.41
2023-08-15T19:30:07.721Z,153660.69
2023-08-15T19:32:34.106Z,153675.97
2023-08-15T19:35:00.388Z,153718.09
2023-08-15T19:37:37.327Z,153716.78
2023-08-15T19:40:04.490Z,153763.94
2023-08-15T19:42:30.768Z,153742.28
2023-08-15T19:44:59.521Z,153681.09
2023-08-15T19:47:25.730Z,153664.53
2023-08-15T19:49:52.027Z,153686.25
2023-08-15T19:52:18.280Z,153646.72
2023-08-15T19:54:44.564Z,153618.69
2023-08-15T19:57:10.829Z,153632.69
2023-08-15T19:59:37.085Z,153591.97
2023-08-15T20:02:03.359Z,153617.41
2023-08-15T20:04:29.641Z,153602.13
2023-08-15T20:06:55.954Z,153577.94
2023-08-15T20:09:22.194Z,153552.44
2023-08-15T20:11:48.510Z,153561.38
2023-08-15T20:14:14.800Z,153566.47
2023-08-15T20:16:41.051Z,153571.53
2023-08-15T20:19:07.358Z,153565.19
2023-08-15T20:21:33.612Z,153543.56
2023-08-15T20:23:59.940Z,153595.78
2023-08-15T20:26:26.188Z,153630.16
2023-08-15T20:28:52.452Z,153646.72
2023-08-15T20:31:18.805Z,153627.63
2023-08-15T20:33:45.085Z,153617.41
2023-08-15T20:36:11.454Z,153605.94
2023-08-15T20:38:37.751Z,153551.16
2023-08-15T20:41:04.011Z,153558.84
2023-08-15T20:43:30.664Z,153541.00
2023-08-15T20:45:56.885Z,153552.44
2023-08-15T20:48:23.532Z,153527.00
2023-08-15T20:50:49.797Z,153521.91
2023-08-15T20:53:16.005Z,153490.09
2023-08-15T20:55:42.233Z,153504.09
2023-08-15T20:58:08.500Z,153506.63
2023-08-15T21:00:34.881Z,153519.38
2023-08-15T21:03:01.235Z,153454.38
2023-08-15T21:05:27.436Z,153459.50
2023-08-15T21:07:54.108Z,153465.91
2023-08-15T21:10:20.361Z,153469.72
2023-08-15T21:12:46.626Z,153505.38
2023-08-15T21:15:12.875Z,153473.53
2023-08-15T21:17:39.136Z,153482.47
2023-08-15T21:20:05.452Z,153488.81
2023-08-15T21:22:31.753Z,153459.50
2023-08-15T21:24:57.986Z,153456.97
2023-08-15T21:27:24.530Z,153420.00
2023-08-15T21:29:51.035Z,153456.97
2023-08-15T21:32:17.276Z,153444.19
2023-08-15T21:34:46.312Z,153435.28
2023-08-15T21:37:14.766Z,153437.84
2023-08-15T21:39:42.052Z,153448.03
2023-08-15T21:42:08.278Z,153430.22
2023-08-15T21:44:34.580Z,153426.34
2023-08-15T21:47:00.861Z,153423.81
2023-08-15T21:49:27.086Z,153436.56
2023-08-15T21:51:53.343Z,153425.09
2023-08-15T21:54:19.650Z,153420.00
2023-08-15T21:56:45.891Z,153439.09
2023-08-15T21:59:12.170Z,153418.75
2023-08-15T22:01:38.414Z,153432.75
2023-08-15T22:04:04.681Z,153407.25
2023-08-15T22:06:30.913Z,153446.78
2023-08-15T22:08:57.152Z,153451.84
2023-08-15T22:11:24.429Z,153455.66
2023-08-15T22:13:50.856Z,153464.63
2023-08-15T22:16:17.149Z,153464.63
2023-08-15T22:18:43.546Z,153464.63
2023-08-15T22:21:09.863Z,153425.09
2023-08-15T22:23:36.116Z,153456.97
2023-08-15T22:26:02.359Z,153455.66
2023-08-15T22:28:28.549Z,153400.91
2023-08-15T22:30:54.809Z,153380.56
2023-08-15T22:33:21.046Z,153308.03
2023-08-15T22:35:47.310Z,153324.56
2023-08-15T22:38:13.580Z,153299.09
2023-08-15T22:40:39.835Z,153332.19
2023-08-15T22:43:06.088Z,153324.56
2023-08-15T22:45:32.417Z,153353.81
2023-08-15T22:47:58.944Z,153350.00
2023-08-15T22:50:25.255Z,153337.31
2023-08-15T22:52:51.531Z,153346.19
2023-08-15T22:55:17.816Z,153376.75
2023-08-15T22:57:44.057Z,153383.09
2023-08-15T23:00:10.360Z,153392.03
2023-08-15T23:02:36.614Z,153400.91
2023-08-15T23:05:02.898Z,153384.38
2023-08-15T23:07:29.115Z,153402.19
2023-08-15T23:09:55.384Z,153398.38
2023-08-15T23:12:21.603Z,153393.31
2023-08-15T23:14:47.945Z,153379.28
2023-08-15T23:17:17.139Z,153355.13
2023-08-15T23:19:43.417Z,153362.75
2023-08-15T23:22:09.654Z,153357.66
2023-08-15T23:24:35.949Z,153384.38
2023-08-15T23:27:02.295Z,153385.63
2023-08-15T23:29:28.590Z,153338.59
2023-08-15T23:31:54.835Z,153336.00
2023-08-15T23:34:21.092Z,153305.50
2023-08-15T23:36:47.313Z,153337.31
2023-08-15T23:39:13.532Z,153367.81
2023-08-15T23:41:39.810Z,153388.19
2023-08-15T23:44:06.074Z,153390.72
2023-08-15T23:46:32.384Z,153399.66
2023-08-15T23:48:58.720Z,153406.00
2023-08-15T23:51:24.975Z,153413.66
2023-08-15T23:53:51.279Z,153425.09
2023-08-15T23:56:17.537Z,153408.53
2023-08-15T23:58:43.821Z,153402.19
